Time;durP1;ratioP1;P1;durP2;ratioP2;P2;SDS_P1;SDS_P2;PMS_P1;PMS_P2;Temp;Humidity;BMP_temperature;BMP_pressure;BME280_temperature;BME280_humidity;BME280_pressure;Samples;Min_cycle;Max_cycle;Signal;HPM_P1;HPM_P2
2023/10/11 00:01:29;;;;;;;13.80;6.73;;;;;;;12.53;100.00;100724.94;4990604;28;20204;-67
2023/10/11 00:03:58;;;;;;;12.13;6.13;;;;;;;12.40;100.00;100719.44;4989002;28;20685;-68
2023/10/11 00:06:32;;;;;;;13.50;6.63;;;;;;;12.26;100.00;100719.31;4990806;28;20304;-67
2023/10/11 00:08:58;;;;;;;10.77;6.00;;;;;;;12.15;100.00;100724.50;4990364;28;20585;-67
2023/10/11 00:11:27;;;;;;;13.33;5.93;;;;;;;12.07;100.00;100727.94;4989432;28;20558;-71
2023/10/11 00:13:54;;;;;;;10.53;5.77;;;;;;;11.97;100.00;100726.91;4984697;28;20248;-67
2023/10/11 00:16:21;;;;;;;10.13;6.10;;;;;;;11.91;100.00;100725.06;4990784;28;20259;-67
2023/10/11 00:18:49;;;;;;;11.57;5.63;;;;;;;11.81;100.00;100714.31;4990022;28;20298;-68
2023/10/11 00:21:16;;;;;;;9.73;5.83;;;;;;;11.85;100.00;100721.44;4988127;28;20216;-68
2023/10/11 00:23:48;;;;;;;12.00;6.20;;;;;;;11.86;100.00;100716.16;4989901;28;20225;-67
2023/10/11 00:26:17;;;;;;;10.73;5.50;;;;;;;11.79;100.00;100705.44;4990615;28;20205;-68
2023/10/11 00:28:44;;;;;;;9.67;5.43;;;;;;;11.77;100.00;100716.00;4988180;28;20197;-67
2023/10/11 00:31:16;;;;;;;10.90;5.90;;;;;;;11.82;100.00;100708.13;4985012;28;20207;-68
2023/10/11 00:33:43;;;;;;;11.63;6.30;;;;;;;11.88;100.00;100714.41;4983807;28;20647;-66
2023/10/11 00:36:11;;;;;;;11.23;5.80;;;;;;;11.86;100.00;100713.50;4990167;28;20258;-69
2023/10/11 00:38:46;;;;;;;12.13;5.80;;;;;;;11.73;100.00;100708.88;4989870;28;20287;-69
2023/10/11 00:41:25;;;;;;;12.50;5.33;;;;;;;11.61;100.00;100714.00;4990209;28;20211;-67
2023/10/11 00:43:53;;;;;;;9.23;5.37;;;;;;;11.47;100.00;100718.19;4987753;28;20225;-68
2023/10/11 00:46:35;;;;;;;10.40;5.60;;;;;;;11.41;100.00;100710.16;4990295;28;20219;-68
2023/10/11 00:51:30;;;;;;;14.63;6.30;;;;;;;11.38;100.00;100708.34;4983489;28;20208;-69
2023/10/11 00:53:59;;;;;;;8.03;5.10;;;;;;;11.33;100.00;100702.09;4989919;28;20311;-70
2023/10/11 00:56:31;;;;;;;10.60;5.43;;;;;;;11.29;100.00;100701.16;4990348;28;20210;-69
2023/10/11 00:58:59;;;;;;;10.63;5.40;;;;;;;11.25;100.00;100701.97;4989528;28;20302;-70
2023/10/11 01:01:26;;;;;;;8.50;5.30;;;;;;;11.21;100.00;100699.25;4986582;28;20744;-69
2023/10/11 01:03:53;;;;;;;10.87;5.23;;;;;;;11.16;100.00;100698.28;4989590;28;20224;-69
2023/10/11 01:06:25;;;;;;;11.03;5.47;;;;;;;11.11;100.00;100699.97;4989915;28;20575;-68
2023/10/11 01:08:52;;;;;;;10.83;5.47;;;;;;;11.05;100.00;100702.50;4983233;28;20208;-68
2023/10/11 01:11:19;;;;;;;11.97;5.83;;;;;;;11.00;100.00;100699.78;4989953;28;20300;-67
2023/10/11 01:13:50;;;;;;;12.87;5.70;;;;;;;10.93;100.00;100701.47;4989606;28;20720;-67
2023/10/11 01:16:26;;;;;;;9.87;5.43;;;;;;;10.93;100.00;100695.25;4993899;28;20206;-68
2023/10/11 01:18:52;;;;;;;8.30;5.17;;;;;;;10.95;100.00;100697.06;4982537;28;20238;-68
2023/10/11 01:21:19;;;;;;;11.93;5.80;;;;;;;10.99;100.00;100698.91;4986310;28;20287;-67
2023/10/11 01:23:46;;;;;;;14.00;5.43;;;;;;;11.04;100.00;100695.44;4989969;28;20234;-66
2023/10/11 01:26:12;;;;;;;10.53;6.00;;;;;;;11.19;100.00;100695.66;4986854;28;20200;-67
2023/10/11 01:28:40;;;;;;;13.90;6.20;;;;;;;11.22;100.00;100691.34;4980935;28;20203;-68
2023/10/11 01:31:09;;;;;;;8.80;5.50;;;;;;;11.29;100.00;100687.00;4993126;28;20204;-68
2023/10/11 01:33:43;;;;;;;13.43;5.63;;;;;;;11.09;100.00;100676.09;4986735;28;20231;-67
2023/10/11 01:36:11;;;;;;;11.27;5.80;;;;;;;11.01;100.00;100683.03;4984199;28;20208;-69
2023/10/11 01:38:46;;;;;;;11.63;6.17;;;;;;;10.91;100.00;100692.59;4981677;28;20668;-67
2023/10/11 01:41:26;;;;;;;10.40;5.57;;;;;;;10.90;100.00;100688.16;4986974;28;20231;-69
2023/10/11 01:43:56;;;;;;;9.67;5.40;;;;;;;10.87;100.00;100690.75;4984657;28;20241;-71
2023/10/11 01:46:26;;;;;;;9.37;5.50;;;;;;;11.02;100.00;100687.47;4988563;28;20207;-70
2023/10/11 01:48:54;;;;;;;14.50;6.10;;;;;;;11.01;100.00;100682.13;4992640;28;20222;-68
2023/10/11 01:51:28;;;;;;;10.60;5.80;;;;;;;10.95;100.00;100682.94;4992918;28;20672;-67
2023/10/11 01:53:56;;;;;;;10.60;5.70;;;;;;;10.84;100.00;100682.75;4986842;28;20646;-68
2023/10/11 01:56:26;;;;;;;13.93;5.90;;;;;;;10.81;100.00;100677.41;4992984;28;20214;-69
2023/10/11 01:58:56;;;;;;;9.80;5.63;;;;;;;10.73;100.00;100675.47;4984503;28;20422;-69
2023/10/11 02:01:30;;;;;;;11.30;5.40;;;;;;;10.66;100.00;100671.81;4992720;28;20210;-70
2023/10/11 02:03:58;;;;;;;10.63;5.47;;;;;;;10.62;100.00;100670.00;4990458;28;20224;-69
2023/10/11 02:06:31;;;;;;;11.63;5.57;;;;;;;10.58;100.00;100666.41;4987548;28;20217;-68
2023/10/11 02:08:58;;;;;;;10.07;5.23;;;;;;;10.53;100.00;100665.44;4974955;28;20207;-68
2023/10/11 02:11:29;;;;;;;12.07;5.90;;;;;;;10.51;100.00;100669.81;4988526;28;20219;-71
2023/10/11 02:14:00;;;;;;;11.70;5.50;;;;;;;10.48;100.00;100667.09;4983037;28;20275;-71
2023/10/11 02:16:32;;;;;;;10.07;5.63;;;;;;;10.49;100.00;100673.31;4978569;28;20205;-67
2023/10/11 02:18:58;;;;;;;11.63;5.90;;;;;;;10.49;100.00;100674.19;4991887;28;20199;-70
2023/10/11 02:21:29;;;;;;;10.53;5.57;;;;;;;10.50;100.00;100675.97;4984553;28;20594;-67
2023/10/11 02:23:58;;;;;;;8.77;5.23;;;;;;;10.42;100.00;100666.09;4984520;28;20230;-67
2023/10/11 02:26:31;;;;;;;14.00;5.67;;;;;;;10.34;100.00;100666.84;4991363;28;20229;-67
2023/10/11 02:29:02;;;;;;;10.27;5.43;;;;;;;10.31;100.00;100663.25;4985185;28;20213;-70
2023/10/11 02:31:33;;;;;;;10.67;5.70;;;;;;;10.32;100.00;100670.31;4992457;28;20211;-67
2023/10/11 02:34:12;;;;;;;9.90;5.47;;;;;;;10.30;100.00;100664.09;4984119;28;20330;-67
2023/10/11 02:36:44;;;;;;;9.60;5.90;;;;;;;10.31;100.00;100669.44;4980215;28;20213;-68
2023/10/11 02:39:19;;;;;;;13.20;5.50;;;;;;;10.31;100.00;100663.25;4991832;28;20582;-70
2023/10/11 02:41:47;;;;;;;11.03;5.23;;;;;;;10.28;100.00;100669.38;4983764;28;20212;-69
2023/10/11 02:44:13;;;;;;;10.27;6.20;;;;;;;10.26;100.00;100672.84;4985414;28;20261;-68
2023/10/11 02:46:42;;;;;;;11.40;5.80;;;;;;;10.39;100.00;100666.03;4981018;28;20204;-68
2023/10/11 02:49:20;;;;;;;12.73;5.50;;;;;;;10.35;100.00;100671.25;4988284;28;20236;-69
2023/10/11 02:51:59;;;;;;;11.27;5.63;;;;;;;10.27;100.00;100664.94;4980337;28;20204;-69
2023/10/11 02:54:34;;;;;;;10.30;5.10;;;;;;;10.19;100.00;100671.81;4986452;28;20222;-68
2023/10/11 02:57:05;;;;;;;12.23;6.20;;;;;;;10.17;100.00;100660.31;4982872;28;20584;-68
2023/10/11 02:59:33;;;;;;;12.17;5.93;;;;;;;10.28;100.00;100665.84;4991922;28;20202;-70
2023/10/11 03:01:59;;;;;;;11.33;6.07;;;;;;;10.29;100.00;100662.31;4974366;28;20205;-68
2023/10/11 03:04:41;;;;;;;8.83;5.40;;;;;;;10.19;100.00;100662.97;4978483;28;20322;-68
2023/10/11 03:07:12;;;;;;;9.90;5.40;;;;;;;10.10;100.00;100661.06;4990540;28;20706;-68
2023/10/11 03:09:40;;;;;;;11.83;5.80;;;;;;;10.05;100.00;100660.06;4991475;28;20201;-68
2023/10/11 03:12:18;;;;;;;10.87;6.40;;;;;;;10.13;100.00;100668.16;4991391;28;20285;-69
2023/10/11 03:14:46;;;;;;;9.47;5.70;;;;;;;10.08;100.00;100657.50;4990579;28;20287;-69
2023/10/11 03:17:16;;;;;;;11.23;5.67;;;;;;;10.10;100.00;100658.41;4979722;28;20289;-73
2023/10/11 03:19:43;;;;;;;11.53;6.20;;;;;;;10.16;100.00;100655.00;4987573;28;20593;-72
2023/10/11 03:22:20;;;;;;;11.53;5.83;;;;;;;10.15;100.00;100658.50;4983928;28;20282;-70
2023/10/11 03:24:59;;;;;;;12.07;5.27;;;;;;;10.09;100.00;100658.38;4983719;28;20693;-70
2023/10/11 03:27:36;;;;;;;15.03;6.00;;;;;;;10.05;100.00;100646.84;4980633;28;20208;-70
2023/10/11 03:30:03;;;;;;;13.03;5.93;;;;;;;10.07;100.00;100652.16;4979586;28;20212;-71
2023/10/11 03:32:30;;;;;;;9.17;5.50;;;;;;;10.15;100.00;100646.16;4972692;28;20204;-69
2023/10/11 03:34:56;;;;;;;14.07;6.10;;;;;;;10.04;100.00;100642.41;4980428;28;20260;-71
2023/10/11 03:37:27;;;;;;;10.87;5.80;;;;;;;9.91;100.00;100635.09;4990741;28;20674;-71
2023/10/11 03:39:56;;;;;;;11.53;6.00;;;;;;;10.00;100.00;100637.91;4981247;28;20214;-72
2023/10/11 03:45:08;;;;;;;10.87;5.60;;;;;;;9.87;100.00;100634.13;5010199;23;20253;-72
2023/10/11 03:47:37;;;;;;;10.73;5.77;;;;;;;10.03;100.00;100641.53;4983749;28;20217;-71
2023/10/11 03:50:06;;;;;;;10.97;5.63;;;;;;;10.03;100.00;100633.59;4989172;28;20590;-72
2023/10/11 03:52:32;;;;;;;10.80;5.30;;;;;;;9.90;100.00;100630.66;4989052;28;20229;-73
2023/10/11 03:55:11;;;;;;;10.10;5.87;;;;;;;9.81;100.00;100635.75;4987484;28;20221;-71
2023/10/11 03:57:42;;;;;;;11.63;5.57;;;;;;;9.87;100.00;100639.41;4985546;28;20204;-73
2023/10/11 04:03:05;;;;;;;11.83;6.13;;;;;;;9.64;100.00;100625.75;4982574;28;20643;-73
2023/10/11 04:05:35;;;;;;;13.07;5.93;;;;;;;9.57;100.00;100628.19;4976862;28;20589;-71
2023/10/11 04:08:05;;;;;;;12.17;5.63;;;;;;;9.53;100.00;100621.06;4981649;28;20282;-72
2023/10/11 04:10:39;;;;;;;12.70;5.93;;;;;;;9.53;100.00;100629.00;4984352;28;20259;-73
2023/10/11 04:13:14;;;;;;;9.97;5.63;;;;;;;9.51;100.00;100628.06;4988949;28;20272;-73
2023/10/11 04:15:42;;;;;;;11.47;6.07;;;;;;;9.42;100.00;100628.78;4982340;28;20713;-73
2023/10/11 04:18:24;;;;;;;11.30;5.63;;;;;;;9.45;100.00;100625.31;4989822;28;20215;-72
2023/10/11 04:21:14;;;;;;;9.50;5.27;;;;;;;9.42;100.00;100624.38;4979840;28;20661;-72
2023/10/11 04:23:39;;;;;;;12.03;5.87;;;;;;;9.53;100.00;100632.53;4976981;28;20236;-73
2023/10/11 04:26:23;;;;;;;12.33;5.30;;;;;;;9.58;100.00;100635.28;4989641;28;20307;-71
2023/10/11 04:28:52;;;;;;;13.80;5.77;;;;;;;9.62;100.00;100627.47;4982138;28;20205;-71
2023/10/11 04:31:31;;;;;;;11.97;5.83;;;;;;;9.70;100.00;100631.16;4978878;28;20274;-71
2023/10/11 04:33:59;;;;;;;9.67;5.23;;;;;;;9.79;100.00;100640.13;4978126;28;20235;-73
2023/10/11 04:36:28;;;;;;;11.23;5.53;;;;;;;9.91;100.00;100635.97;4987083;28;20233;-71
2023/10/11 04:39:03;;;;;;;11.70;6.43;;;;;;;9.86;100.00;100623.53;4986994;28;20301;-73
2023/10/11 04:41:39;;;;;;;14.63;6.13;;;;;;;9.77;100.00;100631.28;4989934;28;20287;-71
2023/10/11 04:44:13;;;;;;;11.03;5.43;;;;;;;9.71;100.00;100626.75;4979922;28;20241;-71
2023/10/11 04:46:44;;;;;;;15.77;5.93;;;;;;;9.56;100.00;100627.31;4983238;28;20287;-71
2023/10/11 04:49:23;;;;;;;10.10;5.30;;;;;;;9.56;100.00;100635.25;4988843;28;20584;-70
2023/10/11 04:51:49;;;;;;;14.27;5.53;;;;;;;9.48;100.00;100636.84;4993944;28;20220;-70
2023/10/11 04:54:18;;;;;;;9.80;5.30;;;;;;;9.39;100.00;100631.34;4989461;28;20233;-71
2023/10/11 04:59:47;;;;;;;10.33;5.80;;;;;;;9.35;100.00;100642.72;4993218;28;20665;-71
2023/10/11 05:02:11;;;;;;;10.73;5.57;;;;;;;9.24;100.00;100638.94;4992139;28;20626;-71
2023/10/11 05:04:42;;;;;;;7.33;4.57;;;;;;;9.15;100.00;100647.53;4988452;28;20255;-73
2023/10/11 05:07:09;;;;;;;10.60;5.07;;;;;;;9.08;100.00;100641.22;4982753;28;20297;-73
2023/10/11 05:09:40;;;;;;;8.33;4.77;;;;;;;9.01;100.00;100628.72;4973901;28;20293;-71
2023/10/11 05:12:07;;;;;;;14.50;5.63;;;;;;;9.11;100.00;100635.13;4986147;28;20240;-71
2023/10/11 05:19:46;;;;;;;16.03;8.60;;;;;;;9.57;100.00;100636.13;4988262;28;20212;-73
2023/10/11 05:30:16;;;;;;;10.53;5.87;;;;;;;9.13;100.00;100640.44;4984844;28;20209;-71
2023/10/11 05:32:54;;;;;;;11.57;5.80;;;;;;;9.02;100.00;100632.25;4986900;28;20219;-71
2023/10/11 05:35:43;;;;;;;9.67;5.53;;;;;;;8.97;100.00;100633.91;4981893;28;20253;-71
2023/10/11 05:51:52;;;;;;;12.83;6.73;;;;;;;9.59;100.00;100640.59;4992951;28;20479;-71
2023/10/11 05:54:20;;;;;;;12.23;6.27;;;;;;;9.59;100.00;100648.53;4986339;28;20227;-71
2023/10/11 05:56:47;;;;;;;10.83;5.83;;;;;;;9.55;100.00;100648.44;4981301;28;20423;-71
2023/10/11 05:59:14;;;;;;;11.30;5.87;;;;;;;9.37;100.00;100656.88;4988943;28;20206;-71
2023/10/11 06:01:44;;;;;;;13.90;6.10;;;;;;;9.28;100.00;100654.00;4979383;28;20212;-71
2023/10/11 06:04:13;;;;;;;14.33;6.63;;;;;;;9.29;100.00;100656.69;4990229;28;20294;-71
2023/10/11 06:06:46;;;;;;;12.50;6.13;;;;;;;9.50;100.00;100658.00;4983423;28;20223;-72
2023/10/11 06:09:25;;;;;;;11.37;6.13;;;;;;;9.55;100.00;100673.13;4989426;28;20212;-71
2023/10/11 06:11:53;;;;;;;12.03;6.60;;;;;;;9.50;100.00;100668.59;4985288;28;20208;-72
2023/10/11 06:14:21;;;;;;;12.13;5.97;;;;;;;9.48;100.00;100671.19;4991900;28;20243;-71
2023/10/11 06:16:58;;;;;;;9.97;5.87;;;;;;;9.42;100.00;100668.44;4991344;28;20216;-71
2023/10/11 06:19:26;;;;;;;10.60;5.47;;;;;;;9.38;100.00;100675.41;4984986;28;20295;-72
2023/10/11 06:21:57;;;;;;;12.27;6.07;;;;;;;9.43;100.00;100683.44;4989719;28;20745;-71
2023/10/11 06:24:36;;;;;;;10.30;5.70;;;;;;;9.48;100.00;100681.78;4981031;28;20724;-72
2023/10/11 06:29:37;;;;;;;10.07;5.60;;;;;;;9.55;100.00;100688.09;4980734;28;20208;-71
2023/10/11 06:32:11;;;;;;;13.23;6.93;;;;;;;9.74;100.00;100683.25;4981630;28;20204;-71
2023/10/11 06:34:39;;;;;;;12.37;6.30;;;;;;;9.84;100.00;100689.63;4988538;28;20666;-71
2023/10/11 06:37:08;;;;;;;10.40;6.33;;;;;;;9.82;100.00;100682.50;4990342;28;20234;-71
2023/10/11 06:42:12;;;;;;;11.23;6.47;;;;;;;9.83;100.00;100687.84;4982354;28;20266;-72
2023/10/11 06:44:40;;;;;;;15.53;6.67;;;;;;;9.89;100.00;100693.25;4985908;28;20232;-71
2023/10/11 06:47:11;;;;;;;14.60;7.20;;;;;;;10.00;100.00;100699.66;4979926;28;20597;-73
2023/10/11 06:49:44;;;;;;;12.80;6.80;;;;;;;10.08;100.00;100681.31;4980159;28;20739;-71
2023/10/11 06:52:11;;;;;;;13.63;7.17;;;;;;;10.14;100.00;100673.47;4980032;28;20203;-76
2023/10/11 06:54:38;;;;;;;13.23;7.20;;;;;;;10.20;100.00;100673.63;4985977;28;20225;-78
2023/10/11 06:57:07;;;;;;;15.37;6.67;;;;;;;10.29;100.00;100678.19;4975051;28;20287;-74
2023/10/11 06:59:33;;;;;;;13.87;7.37;;;;;;;10.39;100.00;100681.91;4982037;28;20201;-73
2023/10/11 07:02:00;;;;;;;13.23;7.17;;;;;;;10.50;100.00;100680.38;4988636;28;20535;-73
2023/10/11 07:04:36;;;;;;;14.00;7.17;;;;;;;10.58;100.00;100671.69;4987099;28;20773;-75
2023/10/11 07:07:07;;;;;;;13.37;7.17;;;;;;;10.70;100.00;100663.06;4988130;28;20274;-81
2023/10/11 07:09:39;;;;;;;11.93;7.30;;;;;;;10.80;100.00;100662.34;4976992;28;20275;-72
2023/10/11 07:12:28;;;;;;;15.03;7.90;;;;;;;10.94;100.00;100663.50;4987231;28;20203;-72
2023/10/11 07:14:58;;;;;;;13.97;7.67;;;;;;;11.11;100.00;100670.81;4987363;28;20223;-74
2023/10/11 07:17:25;;;;;;;17.67;8.40;;;;;;;11.20;100.00;100665.63;4976934;28;20582;-79
2023/10/11 07:19:55;;;;;;;17.80;8.53;;;;;;;11.39;100.00;100672.13;4990697;28;20665;-79
2023/10/11 07:22:25;;;;;;;17.40;10.07;;;;;;;11.57;100.00;100688.28;4988680;28;20214;-78
2023/10/11 07:24:56;;;;;;;14.97;8.33;;;;;;;11.69;100.00;100688.47;4986250;28;20311;-80
2023/10/11 07:27:38;;;;;;;17.60;9.47;;;;;;;11.73;100.00;100685.00;4990038;28;20234;-80
2023/10/11 07:30:16;;;;;;;20.00;9.40;;;;;;;11.82;100.00;100687.78;4990521;28;20712;-81
2023/10/11 07:32:43;;;;;;;19.83;9.83;;;;;;;11.91;100.00;100695.88;4979356;28;20231;-79
2023/10/11 07:35:18;;;;;;;20.57;10.00;;;;;;;12.01;100.00;100695.97;4971493;28;20220;-81
2023/10/11 07:37:45;;;;;;;19.37;8.87;;;;;;;12.06;100.00;100694.28;4986312;28;20215;-81
2023/10/11 07:40:21;;;;;;;17.40;9.33;;;;;;;12.11;100.00;100688.16;4990873;28;20212;-79
2023/10/11 07:42:47;;;;;;;17.27;8.97;;;;;;;12.17;100.00;100693.53;4990019;28;20583;-81
2023/10/11 07:45:13;;;;;;;15.80;8.27;;;;;;;12.26;100.00;100691.84;4980324;28;20602;-81
2023/10/11 07:47:45;;;;;;;25.97;9.70;;;;;;;12.33;100.00;100691.06;4977236;28;20227;-80
2023/10/11 07:50:22;;;;;;;18.40;8.20;;;;;;;12.39;100.00;100683.16;4978410;28;20307;-77
2023/10/11 07:52:49;;;;;;;18.73;9.43;;;;;;;12.49;100.00;100695.69;4978505;28;20509;-76
2023/10/11 07:55:17;;;;;;;19.87;9.00;;;;;;;12.62;100.00;100697.56;4990622;28;20228;-74
2023/10/11 07:57:44;;;;;;;13.47;7.57;;;;;;;12.68;100.00;100692.31;4982429;28;20263;-74
2023/10/11 08:00:20;;;;;;;18.70;8.67;;;;;;;12.80;100.00;100689.75;4987751;28;20291;-74
2023/10/11 08:03:02;;;;;;;17.30;8.90;;;;;;;12.97;100.00;100697.00;4990704;28;20340;-73
2023/10/11 08:05:30;;;;;;;15.40;8.07;;;;;;;13.17;100.00;100706.06;4981400;28;20308;-72
2023/10/11 08:07:56;;;;;;;16.40;8.07;;;;;;;13.29;100.00;100703.53;4982584;28;20211;-72
2023/10/11 08:10:29;;;;;;;16.67;8.43;;;;;;;13.48;100.00;100705.41;4988391;28;20903;-73
2023/10/11 08:12:59;;;;;;;15.03;7.83;;;;;;;13.60;100.00;100696.59;4990487;28;20200;-73
2023/10/11 08:15:30;;;;;;;17.23;8.33;;;;;;;13.64;100.00;100693.09;4977196;28;20233;-73
2023/10/11 08:17:56;;;;;;;15.73;8.57;;;;;;;13.74;100.00;100692.28;4977969;28;20204;-71
2023/10/11 08:20:28;;;;;;;18.20;8.03;;;;;;;13.93;100.00;100687.03;4987149;28;20204;-72
2023/10/11 08:22:56;;;;;;;18.37;8.50;;;;;;;14.15;100.00;100694.22;4990222;28;20204;-73
2023/10/11 08:25:28;;;;;;;15.30;7.47;;;;;;;14.27;100.00;100678.28;4984919;28;20347;-72
2023/10/11 08:28:12;;;;;;;13.90;7.10;;;;;;;14.47;100.00;100674.81;4990090;28;20226;-72
2023/10/11 08:30:40;;;;;;;13.63;7.73;;;;;;;14.72;100.00;100672.19;4984339;28;20200;-73
2023/10/11 08:33:07;;;;;;;13.53;7.40;;;;;;;14.88;100.00;100681.09;4981853;28;20204;-72
2023/10/11 08:35:34;;;;;;;13.10;7.30;;;;;;;15.09;100.00;100679.31;4981472;28;20315;-71
2023/10/11 08:38:03;;;;;;;14.80;7.27;;;;;;;15.32;100.00;100689.09;4981683;28;20288;-72
2023/10/11 08:40:36;;;;;;;13.97;7.10;;;;;;;15.54;100.00;100673.03;4981995;28;20212;-71
2023/10/11 08:43:04;;;;;;;11.83;6.57;;;;;;;15.82;100.00;100671.22;4973944;28;20213;-73
2023/10/11 08:45:34;;;;;;;12.67;6.50;;;;;;;16.15;100.00;100675.53;4988936;28;20224;-72
2023/10/11 08:48:06;;;;;;;12.33;6.47;;;;;;;16.20;100.00;100676.38;4989372;28;20217;-72
2023/10/11 08:50:34;;;;;;;14.20;5.93;;;;;;;16.37;100.00;100666.47;4985286;28;20210;-72
2023/10/11 08:53:08;;;;;;;12.27;5.80;;;;;;;16.58;100.00;100670.81;4978355;28;20756;-72
2023/10/11 08:55:41;;;;;;;12.90;6.27;;;;;;;16.76;100.00;100667.16;4975012;28;20224;-72
2023/10/11 08:58:12;;;;;;;12.03;6.97;;;;;;;16.94;100.00;100667.03;4980241;28;20228;-72
2023/10/11 09:00:47;;;;;;;10.90;6.10;;;;;;;17.03;100.00;100668.72;4989406;28;20208;-72
2023/10/11 09:03:20;;;;;;;11.07;5.40;;;;;;;17.09;100.00;100666.88;4987891;28;20206;-72
2023/10/11 09:05:47;;;;;;;9.10;5.20;;;;;;;17.18;100.00;100664.13;4983265;28;20232;-72
2023/10/11 09:08:27;;;;;;;13.20;5.90;;;;;;;17.39;100.00;100657.69;4973261;28;20209;-72
2023/10/11 09:13:53;;;;;;;9.30;5.00;;;;;;;17.80;100.00;100667.09;4977340;28;20216;-72
2023/10/11 09:16:34;;;;;;;11.50;5.20;;;;;;;18.03;100.00;100673.09;4989640;28;20580;-73
2023/10/11 09:19:06;;;;;;;10.70;5.70;;;;;;;18.23;100.00;100662.09;4980943;28;20236;-72
2023/10/11 09:21:38;;;;;;;12.73;5.30;;;;;;;18.38;100.00;100669.91;4988395;28;20709;-73
2023/10/11 09:24:25;;;;;;;12.90;5.70;;;;;;;18.62;100.00;100663.34;4981265;28;20228;-72
2023/10/11 09:29:57;;;;;;;13.43;5.60;;;;;;;18.70;100.00;100679.31;4965377;28;20200;-72
2023/10/11 09:32:33;;;;;;;11.40;5.70;;;;;;;18.78;100.00;100658.63;4989269;28;20332;-72
2023/10/11 09:35:00;;;;;;;12.30;5.47;;;;;;;18.71;100.00;100665.88;4989443;28;20239;-73
2023/10/11 09:37:26;;;;;;;16.10;6.43;;;;;;;18.38;100.00;100658.28;4989957;28;20292;-72
2023/10/11 09:40:07;;;;;;;12.70;5.93;;;;;;;18.58;100.00;100663.38;4977117;28;20256;-72
2023/10/11 09:42:37;;;;;;;11.90;5.60;;;;;;;18.63;100.00;100665.13;4990572;28;20200;-72
2023/10/11 09:45:05;;;;;;;13.60;5.90;;;;;;;18.71;100.00;100665.88;4984947;28;20222;-72
2023/10/11 09:47:34;;;;;;;11.80;5.80;;;;;;;18.93;100.00;100661.06;4980100;28;20235;-72
2023/10/11 09:50:00;;;;;;;18.77;6.30;;;;;;;19.02;100.00;100663.59;4976571;28;20205;-72
2023/10/11 09:52:29;;;;;;;12.25;5.85;;;;;;;19.06;100.00;100667.13;4990251;28;20236;-72
2023/10/11 09:55:01;;;;;;;9.85;5.82;;;;;;;19.14;100.00;100667.88;4984000;28;20304;-73
2023/10/11 09:57:38;;;;;;;16.67;6.45;;;;;;;19.19;100.00;100654.34;4986664;28;20383;-73
2023/10/11 10:00:14;;;;;;;12.80;6.28;;;;;;;19.37;98.34;100651.34;4981233;28;20204;-73
2023/10/11 10:02:46;;;;;;;13.50;6.47;;;;;;;19.51;98.56;100664.53;4989344;28;20310;-73
2023/10/11 10:05:13;;;;;;;13.60;6.13;;;;;;;19.41;97.99;100662.00;4984313;28;20224;-73
2023/10/11 10:10:08;;;;;;;17.38;5.88;;;;;;;19.56;96.78;100652.81;4983094;28;20203;-73
2023/10/11 10:12:40;;;;;;;11.75;5.47;;;;;;;19.76;95.01;100647.06;4989527;28;20577;-73
2023/10/11 10:15:28;;;;;;;11.75;5.40;;;;;;;19.88;94.28;100643.22;4992030;28;20270;-73
2023/10/11 10:18:00;;;;;;;11.77;6.10;;;;;;;20.03;92.25;100651.88;4987590;28;20669;-73
2023/10/11 10:20:41;;;;;;;15.52;6.15;;;;;;;20.04;91.99;100642.00;4980541;28;20308;-73
2023/10/11 10:23:16;;;;;;;10.70;5.70;;;;;;;20.12;92.06;100645.41;4989353;28;20200;-72
2023/10/11 10:25:48;;;;;;;13.88;6.07;;;;;;;20.25;88.93;100637.94;4978115;28;20225;-73
2023/10/11 10:28:35;;;;;;;12.25;5.57;;;;;;;20.48;88.34;100646.44;4982200;28;20231;-73
2023/10/11 10:31:09;;;;;;;11.40;6.00;;;;;;;20.43;89.17;100642.97;4988393;28;20204;-72
2023/10/11 10:33:36;;;;;;;16.50;5.90;;;;;;;20.49;89.81;100639.25;4983764;28;20291;-74
2023/10/11 10:36:28;;;;;;;9.85;4.95;;;;;;;20.49;87.84;100639.25;4990269;28;20201;-73
2023/10/11 10:41:36;;;;;;;13.88;5.72;;;;;;;20.62;86.43;100628.13;4989431;28;20236;-73
2023/10/11 10:44:16;;;;;;;12.02;5.90;;;;;;;20.59;84.11;100632.72;4983238;28;20404;-73
2023/10/11 10:46:52;;;;;;;10.75;5.30;;;;;;;20.67;87.43;100629.84;4985343;28;20248;-73
2023/10/11 10:49:53;;;;;;;15.38;6.40;;;;;;;20.76;83.33;100627.78;4989879;28;20344;-73
2023/10/11 10:52:22;;;;;;;12.85;5.35;;;;;;;20.92;81.30;100615.75;4975180;28;20614;-72
2023/10/11 10:55:05;;;;;;;10.02;5.15;;;;;;;21.13;79.71;100611.59;4984833;28;20598;-73
2023/10/11 10:57:33;;;;;;;11.18;5.18;;;;;;;21.22;79.44;100611.38;4984959;28;20594;-72
2023/10/11 11:00:05;;;;;;;17.20;5.68;;;;;;;21.30;79.48;100608.50;4986488;28;20284;-73
2023/10/11 11:02:34;;;;;;;8.90;4.93;;;;;;;21.39;77.13;100605.56;4984945;28;20291;-72
2023/10/11 11:05:01;;;;;;;11.25;5.15;;;;;;;21.54;76.79;100606.91;4975897;28;20319;-73
2023/10/11 11:07:27;;;;;;;9.55;5.18;;;;;;;21.70;76.59;100600.19;4987786;28;20250;-73
2023/10/11 11:09:57;;;;;;;12.23;4.70;;;;;;;21.96;76.41;100598.50;4985611;28;20634;-73
2023/10/11 11:12:28;;;;;;;10.20;5.32;;;;;;;22.20;74.10;100593.31;4991265;28;20276;-73
2023/10/11 11:14:56;;;;;;;11.63;5.30;;;;;;;22.32;73.83;100591.13;4989946;28;20221;-73
2023/10/11 11:17:24;;;;;;;10.85;5.20;;;;;;;22.39;73.03;100587.31;4974719;28;20674;-73
2023/10/11 11:20:28;;;;;;;11.35;5.03;;;;;;;22.49;71.06;100594.19;4982680;28;20204;-73
2023/10/11 11:22:55;;;;;;;11.00;4.78;;;;;;;22.63;71.90;100591.03;4984320;28;20201;-73
2023/10/11 11:28:24;;;;;;;10.10;5.05;;;;;;;22.79;69.52;100578.78;4985839;28;20224;-73
2023/10/11 11:30:51;;;;;;;10.45;4.65;;;;;;;22.93;70.82;100581.97;4989727;28;20216;-73
2023/10/11 11:34:08;;;;;;;8.75;4.22;;;;;;;23.18;71.07;100583.78;4989183;28;20255;-73
2023/10/11 11:36:31;;;;;;;17.80;5.43;;;;;;;23.43;68.55;100568.47;4984259;28;20204;-73
2023/10/11 11:39:26;;;;;;;10.27;5.18;;;;;;;23.28;66.95;100563.63;4979323;28;20213;-73
2023/10/11 11:41:58;;;;;;;10.73;5.93;;;;;;;;;;4990363;28;20228;-73
2023/10/11 11:44:27;;;;;;;9.30;4.60;;;;;;;23.42;67.91;100551.38;4989974;28;20232;-73
2023/10/11 11:46:55;;;;;;;10.55;4.93;;;;;;;23.56;66.90;100550.88;4990468;28;20219;-73
2023/10/11 11:49:23;;;;;;;9.35;4.85;;;;;;;23.70;66.43;100545.84;4988316;28;20208;-73
2023/10/11 11:51:51;;;;;;;14.38;4.88;;;;;;;23.82;64.94;100538.19;4990470;28;20201;-73
2023/10/11 11:54:27;;;;;;;14.10;4.82;;;;;;;23.94;64.78;100530.47;4990387;28;20259;-74
2023/10/11 11:56:55;;;;;;;11.75;4.78;;;;;;;24.11;63.86;100521.69;4983879;28;20197;-73
2023/10/11 11:59:23;;;;;;;8.88;4.50;;;;;;;24.24;63.00;100522.97;4988080;28;20212;-73
2023/10/11 12:01:53;;;;;;;9.75;4.80;;;;;;;24.42;62.86;100510.53;4990267;28;20200;-73
2023/10/11 12:04:20;;;;;;;9.52;4.40;;;;;;;24.70;63.43;100518.38;4990049;28;20246;-73
2023/10/11 12:06:48;;;;;;;12.23;4.38;;;;;;;24.78;60.66;100509.91;4988171;28;20220;-74
2023/10/11 12:09:21;;;;;;;10.20;4.85;;;;;;;24.78;60.25;100509.91;4989604;28;20523;-73
2023/10/11 12:11:53;;;;;;;9.55;4.50;;;;;;;24.80;59.78;100508.00;4981908;28;20201;-73
2023/10/11 12:14:23;;;;;;;10.98;4.50;;;;;;;24.83;59.24;100492.53;4981387;28;20224;-73
2023/10/11 12:16:49;;;;;;;12.43;4.63;;;;;;;24.87;58.38;100496.88;4990238;28;20201;-73
2023/10/11 12:19:16;;;;;;;10.15;4.13;;;;;;;24.96;58.19;100492.84;4981769;28;20221;-73
2023/10/11 12:21:42;;;;;;;11.52;4.07;;;;;;;25.15;56.36;100491.09;4976954;28;20208;-74
2023/10/11 12:24:12;;;;;;;9.05;3.85;;;;;;;25.02;55.24;100487.19;4978256;28;20312;-73
2023/10/11 12:26:58;;;;;;;9.38;4.00;;;;;;;25.20;54.11;100489.06;4970800;28;20456;-73
2023/10/11 12:29:26;;;;;;;8.43;4.03;;;;;;;25.37;53.89;100485.59;4986306;28;20208;-73
2023/10/11 12:31:54;;;;;;;8.68;3.45;;;;;;;25.48;53.57;100482.38;4984395;28;20201;-74